createdAt,value
2018-01-22T00:00:50.315Z,24.40
2018-01-22T00:03:18.796Z,23.07
2018-01-22T00:05:48.264Z,26.03
2018-01-22T00:08:16.570Z,25.67
2018-01-22T00:10:45.939Z,23.63
2018-01-22T00:13:14.357Z,23.07
2018-01-22T00:15:42.843Z,22.50
2018-01-22T00:18:11.396Z,26.77
2018-01-22T00:20:39.685Z,23.77
2018-01-22T00:23:07.960Z,23.23
2018-01-22T00:25:36.541Z,22.77
2018-01-22T00:28:04.836Z,22.40
2018-01-22T00:30:33.084Z,20.87
2018-01-22T00:33:01.586Z,24.40
2018-01-22T00:35:30.127Z,20.17
2018-01-22T00:37:58.373Z,22.07
2018-01-22T00:40:26.925Z,23.00
2018-01-22T00:42:55.337Z,23.53
2018-01-22T00:45:24.027Z,23.13
2018-01-22T00:47:53.078Z,22.10
2018-01-22T00:50:21.395Z,24.67
2018-01-22T00:52:50.416Z,22.23
2018-01-22T00:55:18.797Z,23.57
2018-01-22T00:57:49.707Z,24.57
2018-01-22T01:00:18.832Z,22.47
2018-01-22T01:02:47.102Z,22.70
2018-01-22T01:05:15.747Z,23.10
2018-01-22T01:07:44.769Z,23.53
2018-01-22T01:10:13.064Z,23.73
2018-01-22T01:12:41.412Z,23.67
2018-01-22T01:15:10.680Z,24.60
2018-01-22T01:17:38.909Z,23.87
2018-01-22T01:20:07.368Z,24.80
2018-01-22T01:22:36.471Z,24.77
2018-01-22T01:25:04.887Z,25.20
2018-01-22T01:27:33.172Z,26.20
2018-01-22T01:30:01.488Z,30.27
2018-01-22T01:32:30.586Z,26.03
2018-01-22T01:34:58.940Z,26.70
2018-01-22T01:37:27.279Z,25.90
2018-01-22T01:39:55.547Z,27.63
2018-01-22T01:42:24.005Z,25.87
2018-01-22T01:44:52.284Z,29.40
2018-01-22T01:47:20.554Z,26.33
2018-01-22T01:49:49.622Z,25.93
2018-01-22T01:52:18.021Z,26.73
2018-01-22T01:54:47.044Z,26.40
2018-01-22T01:57:15.591Z,22.83
2018-01-22T01:59:43.888Z,24.47
2018-01-22T02:02:12.160Z,26.17
2018-01-22T02:04:41.452Z,24.33
2018-01-22T02:07:09.743Z,23.83
2018-01-22T02:09:38.749Z,25.57
2018-01-22T02:12:07.004Z,24.37
2018-01-22T02:14:36.004Z,24.40
2018-01-22T02:17:04.256Z,25.03
2018-01-22T02:19:33.428Z,25.80
2018-01-22T02:22:01.709Z,28.67
2018-01-22T02:24:29.984Z,27.67
2018-01-22T02:26:59.505Z,25.57
2018-01-22T02:29:28.677Z,24.50
2018-01-22T02:31:57.072Z,25.23
2018-01-22T02:34:25.385Z,25.63
2018-01-22T02:36:54.470Z,23.80
2018-01-22T02:39:23.593Z,24.77
2018-01-22T02:41:51.861Z,24.10
2018-01-22T02:44:20.187Z,24.33
2018-01-22T02:46:48.488Z,24.97
2018-01-22T02:49:16.812Z,25.67
2018-01-22T02:51:45.132Z,26.50
2018-01-22T02:54:13.406Z,26.17
2018-01-22T02:56:41.825Z,23.70
2018-01-22T02:59:10.835Z,24.87
2018-01-22T03:01:39.167Z,27.73
2018-01-22T03:04:07.448Z,27.93
2018-01-22T03:06:36.532Z,27.30
2018-01-22T03:09:04.819Z,26.50
2018-01-22T03:11:34.332Z,26.07
2018-01-22T03:14:03.402Z,25.37
2018-01-22T03:16:31.665Z,29.13
2018-01-22T03:19:00.009Z,30.77
2018-01-22T03:21:28.274Z,29.90
2018-01-22T03:23:57.340Z,27.53
2018-01-22T03:26:25.624Z,26.97
2018-01-22T03:28:54.633Z,30.30
2018-01-22T03:31:23.643Z,28.10
2018-01-22T03:33:52.056Z,27.87
2018-01-22T03:36:20.332Z,32.60
2018-01-22T03:38:48.592Z,28.50
2018-01-22T03:41:17.047Z,28.97
2018-01-22T03:43:46.048Z,26.03
2018-01-22T03:46:14.318Z,26.10
2018-01-22T03:48:43.347Z,25.17
2018-01-22T03:51:11.596Z,27.50
2018-01-22T03:53:39.841Z,25.03
2018-01-22T03:56:09.012Z,25.73
2018-01-22T03:58:37.270Z,25.43
2018-01-22T04:01:05.560Z,24.87
2018-01-22T04:03:33.865Z,27.93
2018-01-22T04:06:02.170Z,28.37
2018-01-22T04:08:30.541Z,26.03
2018-01-22T04:10:59.612Z,24.60
2018-01-22T04:13:27.850Z,24.67
2018-01-22T04:15:56.126Z,28.10
2018-01-22T04:18:24.459Z,27.97
2018-01-22T04:20:53.488Z,24.87
2018-01-22T04:23:21.775Z,25.37
2018-01-22T04:25:50.040Z,26.17
2018-01-22T04:28:18.763Z,23.87
2018-01-22T04:30:47.028Z,27.07
2018-01-22T04:33:15.300Z,25.33
2018-01-22T04:35:43.547Z,24.07
2018-01-22T04:38:11.794Z,25.30
2018-01-22T04:40:42.073Z,25.40
2018-01-22T04:43:10.360Z,24.60
2018-01-22T04:45:38.636Z,24.43
2018-01-22T04:48:06.952Z,26.13
2018-01-22T04:50:36.175Z,24.37
2018-01-22T04:53:04.415Z,23.73
2018-01-22T04:55:32.660Z,25.27
2018-01-22T04:58:00.900Z,25.63
2018-01-22T05:00:29.177Z,25.70
2018-01-22T05:02:57.508Z,23.57
2018-01-22T05:05:25.887Z,23.10
2018-01-22T05:07:54.110Z,27.30
2018-01-22T05:10:23.483Z,23.57
2018-01-22T05:12:51.808Z,26.03
2018-01-22T05:15:20.340Z,23.37
2018-01-22T05:17:48.615Z,25.10
2018-01-22T05:20:17.664Z,22.77
2018-01-22T05:22:45.941Z,23.13
2018-01-22T05:25:14.251Z,22.27
2018-01-22T05:27:42.501Z,23.13
2018-01-22T05:30:10.781Z,23.73
2018-01-22T05:32:39.124Z,21.90
2018-01-22T05:35:07.912Z,24.00
2018-01-22T05:37:37.184Z,23.00
2018-01-22T05:40:05.511Z,20.53
2018-01-22T05:42:33.740Z,20.83
2018-01-22T05:45:02.851Z,19.03
2018-01-22T05:47:33.308Z,19.17
2018-01-22T05:50:01.557Z,19.47
2018-01-22T05:52:30.870Z,21.90
2018-01-22T05:54:59.880Z,20.13
2018-01-22T05:57:28.148Z,19.20
2018-01-22T05:59:56.513Z,18.43
2018-01-22T06:02:25.540Z,19.63
2018-01-22T06:04:53.799Z,18.87
2018-01-22T06:09:49.392Z,18.93
2018-01-22T06:12:18.426Z,19.43
2018-01-22T06:14:46.696Z,19.87
2018-01-22T06:17:14.987Z,19.77
2018-01-22T06:19:43.252Z,19.73
2018-01-22T06:22:11.535Z,18.83
2018-01-22T06:24:39.902Z,19.47
2018-01-22T06:27:08.638Z,18.50
2018-01-22T06:29:37.728Z,19.73
2018-01-22T06:32:06.050Z,20.53
2018-01-22T06:34:34.312Z,17.87
2018-01-22T06:39:37.948Z,17.43
2018-01-22T06:42:06.223Z,19.60
2018-01-22T06:44:35.291Z,20.27
2018-01-22T06:47:03.567Z,19.47
2018-01-22T06:49:31.819Z,18.77
2018-01-22T06:52:00.055Z,18.67
2018-01-22T06:54:28.336Z,22.87
2018-01-22T06:56:56.647Z,22.23
2018-01-22T06:59:24.891Z,20.67
2018-01-22T07:01:53.185Z,19.67
2018-01-22T07:04:21.572Z,20.87
2018-01-22T07:06:49.878Z,19.87
2018-01-22T07:09:18.096Z,20.40
2018-01-22T07:11:46.948Z,19.77
2018-01-22T07:14:15.957Z,20.50
2018-01-22T07:16:45.029Z,18.80
2018-01-22T07:19:13.305Z,21.47
2018-01-22T07:21:41.992Z,20.93
2018-01-22T07:24:10.282Z,20.13
2018-01-22T07:26:39.360Z,19.70
2018-01-22T07:29:07.617Z,20.13
2018-01-22T07:31:36.027Z,18.30
2018-01-22T07:34:04.459Z,20.27
2018-01-22T07:36:32.743Z,19.43
2018-01-22T07:39:01.068Z,18.87
2018-01-22T07:41:30.072Z,19.00
2018-01-22T07:43:59.096Z,20.77
2018-01-22T07:46:27.380Z,20.37
2018-01-22T07:48:55.621Z,19.43
2018-01-22T07:51:24.681Z,20.47
2018-01-22T07:53:52.972Z,20.27
2018-01-22T07:56:21.212Z,19.77
2018-01-22T07:58:49.472Z,18.93
2018-01-22T08:01:17.764Z,20.63
2018-01-22T08:03:46.024Z,22.50
2018-01-22T08:06:14.277Z,22.67
2018-01-22T08:08:42.649Z,22.50
2018-01-22T08:11:10.884Z,20.77
2018-01-22T08:13:39.172Z,19.80
2018-01-22T08:16:07.497Z,23.73
2018-01-22T08:18:35.772Z,20.90
2018-01-22T08:21:04.059Z,19.57
2018-01-22T08:23:32.362Z,19.20
2018-01-22T08:26:00.714Z,20.77
2018-01-22T08:28:29.773Z,19.17
2018-01-22T08:30:58.813Z,19.67
2018-01-22T08:33:27.050Z,21.63
2018-01-22T08:35:56.109Z,21.03
2018-01-22T08:38:24.485Z,21.13
2018-01-22T08:40:52.857Z,20.00
2018-01-22T08:43:21.152Z,20.87
2018-01-22T08:45:49.432Z,20.27
2018-01-22T08:48:17.711Z,22.33
2018-01-22T08:50:45.954Z,19.93
2018-01-22T08:53:14.242Z,19.63
2018-01-22T08:55:42.552Z,22.43
2018-01-22T08:58:10.808Z,21.07
2018-01-22T09:00:39.088Z,21.53
2018-01-22T09:03:07.437Z,22.87
2018-01-22T09:05:35.689Z,23.03
2018-01-22T09:08:03.976Z,19.87
2018-01-22T09:10:32.227Z,22.80
2018-01-22T09:13:01.229Z,22.60
2018-01-22T09:15:29.549Z,21.63
2018-01-22T09:17:57.905Z,20.80
2018-01-22T09:20:26.188Z,22.90
2018-01-22T09:22:54.560Z,22.20
2018-01-22T09:25:22.877Z,23.03
2018-01-22T09:27:51.110Z,24.20
2018-01-22T09:30:19.472Z,23.63
2018-01-22T09:32:47.712Z,21.10
2018-01-22T09:35:15.964Z,20.23
2018-01-22T09:37:44.252Z,20.43
2018-01-22T09:40:12.512Z,19.77
2018-01-22T09:42:40.804Z,20.40
2018-01-22T09:45:09.145Z,20.13
2018-01-22T09:47:37.444Z,20.93
2018-01-22T09:50:05.685Z,20.67
2018-01-22T09:52:34.057Z,20.33
2018-01-22T09:55:03.145Z,20.33
2018-01-22T09:57:32.242Z,18.27
2018-01-22T10:00:01.281Z,19.50
2018-01-22T10:02:29.526Z,19.83
2018-01-22T10:04:57.836Z,18.37
2018-01-22T10:07:26.212Z,20.30
2018-01-22T10:09:54.577Z,19.77
2018-01-22T10:12:22.852Z,17.67
2018-01-22T10:14:51.169Z,16.97
2018-01-22T10:17:19.412Z,17.93
2018-01-22T10:19:47.720Z,18.20
2018-01-22T10:22:16.087Z,18.33
2018-01-22T10:24:44.343Z,17.90
2018-01-22T10:27:12.633Z,17.90
2018-01-22T10:29:40.960Z,15.80
2018-01-22T10:32:09.998Z,15.67
2018-01-22T10:34:38.244Z,18.43
2018-01-22T10:37:06.573Z,19.60
2018-01-22T10:39:34.845Z,17.67
2018-01-22T10:42:03.076Z,17.13
2018-01-22T10:44:31.398Z,18.17
2018-01-22T10:46:59.636Z,19.53
2018-01-22T10:49:27.877Z,17.70
2018-01-22T10:51:56.924Z,19.00
2018-01-22T10:54:25.338Z,18.13
2018-01-22T10:56:53.600Z,18.27
2018-01-22T10:59:24.436Z,16.07
2018-01-22T11:01:52.756Z,15.70
2018-01-22T11:04:21.008Z,16.33
2018-01-22T11:06:49.277Z,17.27
2018-01-22T11:09:17.508Z,16.27
2018-01-22T11:11:45.916Z,17.03
2018-01-22T11:14:14.185Z,16.80
2018-01-22T11:16:43.302Z,16.90
2018-01-22T11:19:11.501Z,17.40
2018-01-22T11:21:40.940Z,16.40
2018-01-22T11:24:09.912Z,15.73
2018-01-22T11:26:38.200Z,17.13
2018-01-22T11:29:06.592Z,16.33
2018-01-22T11:31:34.861Z,17.47
2018-01-22T11:34:04.060Z,18.33
2018-01-22T11:36:32.510Z,18.63
2018-01-22T11:39:01.545Z,16.57
2018-01-22T11:41:29.802Z,17.87
2018-01-22T11:43:58.105Z,16.07
2018-01-22T11:46:26.534Z,15.63
2018-01-22T11:48:54.808Z,16.23
2018-01-22T11:51:23.070Z,15.33
2018-01-22T11:53:51.305Z,17.30
2018-01-22T11:56:19.608Z,16.90
2018-01-22T11:58:47.929Z,16.97
2018-01-22T12:01:16.193Z,17.27
2018-01-22T12:03:45.236Z,17.53
2018-01-22T12:06:16.038Z,15.23
2018-01-22T12:08:44.420Z,17.10
2018-01-22T12:11:12.850Z,16.40
2018-01-22T12:13:41.111Z,18.07
2018-01-22T12:16:09.498Z,16.40
2018-01-22T12:18:38.556Z,18.33
2018-01-22T12:21:06.875Z,15.53
2018-01-22T12:23:35.229Z,17.27
2018-01-22T12:26:03.489Z,16.03
2018-01-22T12:28:31.839Z,16.50
2018-01-22T12:31:00.896Z,16.93
2018-01-22T12:33:29.316Z,14.87
2018-01-22T12:35:59.063Z,16.20
2018-01-22T12:38:27.744Z,15.07
2018-01-22T12:40:56.084Z,18.10
2018-01-22T12:43:24.387Z,16.97
2018-01-22T12:45:52.676Z,18.37
2018-01-22T12:48:20.917Z,16.27
2018-01-22T12:50:49.967Z,15.20
2018-01-22T12:53:18.487Z,14.57
2018-01-22T12:55:46.712Z,17.60
2018-01-22T12:58:14.979Z,18.07
2018-01-22T13:00:43.274Z,15.50
2018-01-22T13:03:11.517Z,18.07
2018-01-22T13:05:40.548Z,16.43
2018-01-22T13:08:08.795Z,15.97
2018-01-22T13:10:37.785Z,17.57
2018-01-22T13:13:06.136Z,18.27
2018-01-22T13:15:34.516Z,17.67
2018-01-22T13:18:02.820Z,15.53
2018-01-22T13:20:31.206Z,14.60
2018-01-22T13:22:59.528Z,15.70
2018-01-22T13:25:27.774Z,15.57
2018-01-22T13:27:57.011Z,14.70
2018-01-22T13:30:25.640Z,12.87
2018-01-22T13:32:53.881Z,15.37
2018-01-22T13:35:22.415Z,13.60
2018-01-22T13:37:50.797Z,13.57
2018-01-22T13:40:25.576Z,13.03
2018-01-22T13:42:53.801Z,14.60
2018-01-22T13:45:22.812Z,15.20
2018-01-22T13:47:51.186Z,16.23
2018-01-22T13:50:19.504Z,16.23
2018-01-22T13:52:47.826Z,16.23
2018-01-22T13:55:16.958Z,16.73
2018-01-22T13:57:45.271Z,15.90
2018-01-22T14:00:13.548Z,14.63
2018-01-22T14:02:41.821Z,16.57
2018-01-22T14:05:10.105Z,17.47
2018-01-22T14:07:38.348Z,15.90
2018-01-22T14:10:07.456Z,16.33
2018-01-22T14:12:35.745Z,17.23
2018-01-22T14:15:04.100Z,17.23
2018-01-22T14:17:32.435Z,17.40
2018-01-22T14:20:00.678Z,14.50
2018-01-22T14:22:28.927Z,17.67
2018-01-22T14:24:57.204Z,16.83
2018-01-22T14:27:25.525Z,17.40
2018-01-22T14:29:54.535Z,18.57
2018-01-22T14:32:23.737Z,19.67
2018-01-22T14:34:52.773Z,19.27
2018-01-22T14:37:21.105Z,19.17
2018-01-22T14:39:49.435Z,19.37
2018-01-22T14:42:17.756Z,19.13
2018-01-22T14:44:46.754Z,16.20
2018-01-22T14:47:15.849Z,20.50
2018-01-22T14:49:44.160Z,17.63
2018-01-22T14:52:12.412Z,16.10
2018-01-22T14:54:40.684Z,21.47
2018-01-22T14:57:08.962Z,17.30
2018-01-22T14:59:38.070Z,18.77
2018-01-22T15:02:06.390Z,16.63
2018-01-22T15:04:34.787Z,19.00
2018-01-22T15:07:03.033Z,18.40
2018-01-22T15:09:31.352Z,18.87
2018-01-22T15:12:00.370Z,15.60
2018-01-22T15:14:28.633Z,16.03
2018-01-22T15:16:57.725Z,17.80
2018-01-22T15:19:26.716Z,16.27
2018-01-22T15:21:55.726Z,19.03
2018-01-22T15:24:24.052Z,16.17
2018-01-22T15:26:52.575Z,19.50
2018-01-22T15:29:20.949Z,20.10
2018-01-22T15:31:49.272Z,19.97
2018-01-22T15:34:17.685Z,18.23
2018-01-22T15:36:46.069Z,18.60
2018-01-22T15:41:48.999Z,20.83
2018-01-22T15:44:18.048Z,21.90
2018-01-22T15:46:46.448Z,19.23
2018-01-22T15:49:14.806Z,23.27
2018-01-22T15:51:43.199Z,21.03
2018-01-22T15:54:11.492Z,21.03
2018-01-22T15:56:40.948Z,22.10
2018-01-22T15:59:09.846Z,24.13
2018-01-22T16:01:38.240Z,23.57
2018-01-22T16:04:06.524Z,26.60
2018-01-22T16:06:34.888Z,21.83
2018-01-22T16:09:03.141Z,25.30
2018-01-22T16:11:31.485Z,25.80
2018-01-22T16:14:01.013Z,27.47
2018-01-22T16:16:29.249Z,24.17
2018-01-22T16:18:58.480Z,23.73
2018-01-22T16:21:26.804Z,22.53
2018-01-22T16:23:55.076Z,25.70
2018-01-22T16:26:23.332Z,23.83
2018-01-22T16:28:51.836Z,24.23
2018-01-22T16:31:20.062Z,22.80
2018-01-22T16:33:48.341Z,26.33
2018-01-22T16:36:16.756Z,27.33
2018-01-22T16:38:45.053Z,27.53
2018-01-22T16:41:13.376Z,28.23
2018-01-22T16:43:42.508Z,24.17
2018-01-22T16:46:10.783Z,26.10
2018-01-22T16:48:39.058Z,31.53
2018-01-22T16:51:07.365Z,29.07
2018-01-22T16:53:35.814Z,25.53
2018-01-22T16:56:04.136Z,27.63
2018-01-22T16:58:33.409Z,30.40
2018-01-22T17:01:01.680Z,29.30
2018-01-22T17:03:30.067Z,34.47
2018-01-22T17:05:59.120Z,31.37
2018-01-22T17:08:27.396Z,32.93
2018-01-22T17:10:55.764Z,28.70
2018-01-22T17:13:24.074Z,31.60
2018-01-22T17:15:52.338Z,28.20
2018-01-22T17:18:20.605Z,24.50
2018-01-22T17:20:48.891Z,25.03
2018-01-22T17:25:51.649Z,26.10
2018-01-22T17:28:20.665Z,26.80
2018-01-22T17:33:30.559Z,28.77
2018-01-22T17:35:58.803Z,31.97
2018-01-22T17:38:27.128Z,27.43
2018-01-22T17:40:55.412Z,24.03
2018-01-22T17:43:23.710Z,24.73
2018-01-22T17:45:53.163Z,23.07
2018-01-22T17:48:21.429Z,27.10
2018-01-22T17:50:49.692Z,24.07
2018-01-22T17:53:18.732Z,28.30
2018-01-22T17:55:47.094Z,29.63
2018-01-22T17:58:15.416Z,32.03
2018-01-22T18:00:43.741Z,27.63
2018-01-22T18:03:12.780Z,30.43
2018-01-22T18:05:41.110Z,34.93
2018-01-22T18:08:09.466Z,33.03
2018-01-22T18:10:38.676Z,36.67
2018-01-22T18:13:07.622Z,28.70
2018-01-22T18:15:36.140Z,36.40
2018-01-22T18:18:04.776Z,38.07
2018-01-22T18:20:33.124Z,34.00
2018-01-22T18:23:01.363Z,33.57
2018-01-22T18:25:30.448Z,33.17
2018-01-22T18:27:58.792Z,28.93
2018-01-22T18:30:27.175Z,29.37
2018-01-22T18:32:55.578Z,29.43
2018-01-22T18:35:24.640Z,26.80
2018-01-22T18:37:53.198Z,27.63
2018-01-22T18:40:21.626Z,29.03
2018-01-22T18:42:49.953Z,29.83
2018-01-22T18:45:19.020Z,33.33
2018-01-22T18:47:47.879Z,32.27
2018-01-22T18:50:17.154Z,28.73
2018-01-22T18:52:45.478Z,32.07
2018-01-22T18:55:13.805Z,33.50
2018-01-22T18:57:42.105Z,29.30
2018-01-22T19:00:10.356Z,33.17
2018-01-22T19:02:39.676Z,33.83
2018-01-22T19:05:07.934Z,28.93
2018-01-22T19:07:36.251Z,33.33
2018-01-22T19:10:04.533Z,34.33
2018-01-22T19:12:32.942Z,31.03
2018-01-22T19:15:01.181Z,34.83
2018-01-22T19:17:30.194Z,44.87
2018-01-22T19:19:58.735Z,35.50
2018-01-22T19:22:27.113Z,39.47
2018-01-22T19:24:55.479Z,36.80
2018-01-22T19:27:23.810Z,33.93
2018-01-22T19:29:52.670Z,39.57
2018-01-22T19:32:21.055Z,39.43
2018-01-22T19:34:49.746Z,33.00
2018-01-22T19:37:18.125Z,37.80
2018-01-22T19:39:47.299Z,33.03
2018-01-22T19:42:17.493Z,35.40
2018-01-22T19:44:47.181Z,33.90
2018-01-22T19:47:15.523Z,33.50
2018-01-22T19:49:44.980Z,32.07
2018-01-22T19:52:13.352Z,32.97
2018-01-22T19:54:42.384Z,28.97
2018-01-22T19:57:10.678Z,37.27
2018-01-22T19:59:39.164Z,37.27
2018-01-22T20:02:07.447Z,42.50
2018-01-22T20:04:35.718Z,40.63
2018-01-22T20:07:04.034Z,45.80
2018-01-22T20:09:33.120Z,35.87
2018-01-22T20:12:02.144Z,30.30
2018-01-22T20:14:30.461Z,37.93
2018-01-22T20:16:58.753Z,27.07
2018-01-22T20:19:27.176Z,36.23
2018-01-22T20:21:56.308Z,30.67
2018-01-22T20:24:24.937Z,39.50
2018-01-22T20:26:54.127Z,46.47
2018-01-22T20:29:23.815Z,122.27
2018-01-22T20:31:52.183Z,82.97
2018-01-22T20:34:20.696Z,52.17
2018-01-22T20:36:49.139Z,36.77
2018-01-22T20:39:18.279Z,29.97
2018-01-22T20:44:12.276Z,28.67
2018-01-22T20:46:41.235Z,41.70
2018-01-22T20:49:10.011Z,36.27
2018-01-22T20:51:38.540Z,31.67
2018-01-22T20:54:07.549Z,34.50
2018-01-22T20:56:36.564Z,29.80
2018-01-22T20:59:04.817Z,34.83
2018-01-22T21:01:33.085Z,32.03
2018-01-22T21:04:01.346Z,32.73
2018-01-22T21:06:29.578Z,32.23
2018-01-22T21:08:58.050Z,26.97
2018-01-22T21:11:26.299Z,28.27
2018-01-22T21:13:55.522Z,30.23
2018-01-22T21:16:23.956Z,25.87
2018-01-22T21:18:52.219Z,28.30
2018-01-22T21:21:21.380Z,33.17
2018-01-22T21:23:49.882Z,31.60
2018-01-22T21:26:18.116Z,30.20
2018-01-22T21:28:46.397Z,30.83
2018-01-22T21:31:14.676Z,31.37
2018-01-22T21:33:42.940Z,34.33
2018-01-22T21:36:11.201Z,31.13
2018-01-22T21:38:39.585Z,30.03
2018-01-22T21:41:07.860Z,29.63
2018-01-22T21:43:36.106Z,32.83
2018-01-22T21:46:05.214Z,32.77
2018-01-22T21:48:33.545Z,37.83
2018-01-22T21:51:01.780Z,36.17
2018-01-22T21:53:30.595Z,30.60
2018-01-22T21:55:58.982Z,30.93
2018-01-22T21:58:27.221Z,30.67
2018-01-22T22:00:55.666Z,34.03
2018-01-22T22:03:23.955Z,34.60
2018-01-22T22:05:52.977Z,29.27
2018-01-22T22:08:21.293Z,28.93
2018-01-22T22:10:49.754Z,33.03
2018-01-22T22:13:18.899Z,35.87
2018-01-22T22:15:47.322Z,36.13
2018-01-22T22:18:16.769Z,34.00
2018-01-22T22:20:46.377Z,32.90
2018-01-22T22:23:14.871Z,35.10
2018-01-22T22:25:43.133Z,29.00
2018-01-22T22:28:11.389Z,31.03
2018-01-22T22:30:39.754Z,32.27
2018-01-22T22:33:08.106Z,26.83
2018-01-22T22:35:37.361Z,32.03
2018-01-22T22:38:05.649Z,31.50
2018-01-22T22:40:33.952Z,36.33
2018-01-22T22:43:02.195Z,32.60
2018-01-22T22:45:30.520Z,32.70
2018-01-22T22:47:58.804Z,30.40
2018-01-22T22:50:27.076Z,31.30
2018-01-22T22:52:55.391Z,33.53
2018-01-22T22:55:23.748Z,32.20
2018-01-22T22:57:51.989Z,31.20
2018-01-22T23:00:21.056Z,31.63
2018-01-22T23:02:49.304Z,30.87
2018-01-22T23:05:17.801Z,31.63
2018-01-22T23:07:46.203Z,27.10
2018-01-22T23:10:15.216Z,29.17
2018-01-22T23:12:44.530Z,30.10
2018-01-22T23:15:13.536Z,27.90
2018-01-22T23:17:41.809Z,32.30
2018-01-22T23:20:10.097Z,30.43
2018-01-22T23:22:38.385Z,31.07
2018-01-22T23:25:06.668Z,33.17
2018-01-22T23:27:34.960Z,29.43
2018-01-22T23:30:03.280Z,35.17
2018-01-22T23:32:31.525Z,29.07
2018-01-22T23:35:00.564Z,39.83
2018-01-22T23:37:28.973Z,29.40
2018-01-22T23:39:57.220Z,30.23
2018-01-22T23:42:25.484Z,35.10
2018-01-22T23:44:53.769Z,30.97
2018-01-22T23:47:22.049Z,26.40
2018-01-22T23:49:50.364Z,24.13
2018-01-22T23:52:18.684Z,32.77
2018-01-22T23:54:47.821Z,28.40
2018-01-22T23:57:16.384Z,33.40
2018-01-22T23:59:44.685Z,28.70
